sensor_id;sensor_type;location;lat;lon;timestamp;P1;durP1;ratioP1;P2;durP2;ratioP2
52740;SDS011;38634;52.138;9.912;2022-09-13T00:00:47;2.45;;;1.85;;
52740;SDS011;38634;52.138;9.912;2022-09-13T00:03:32;2.85;;;2.05;;
52740;SDS011;38634;52.138;9.912;2022-09-13T00:06:18;3.05;;;1.92;;
52740;SDS011;38634;52.138;9.912;2022-09-13T00:09:04;2.85;;;2.08;;
52740;SDS011;38634;52.138;9.912;2022-09-13T00:11:48;4.05;;;2.47;;
52740;SDS011;38634;52.138;9.912;2022-09-13T00:14:34;3.05;;;1.88;;
52740;SDS011;38634;52.138;9.912;2022-09-13T00:17:19;2.90;;;2.05;;
52740;SDS011;38634;52.138;9.912;2022-09-13T00:20:04;3.10;;;2.00;;
52740;SDS011;38634;52.138;9.912;2022-09-13T00:22:49;3.85;;;2.13;;
52740;SDS011;38634;52.138;9.912;2022-09-13T00:25:33;2.85;;;2.00;;
52740;SDS011;38634;52.138;9.912;2022-09-13T00:28:18;2.85;;;1.85;;
52740;SDS011;38634;52.138;9.912;2022-09-13T08:03:25;6.35;;;1.67;;
52740;SDS011;38634;52.138;9.912;2022-09-13T08:06:09;10.70;;;2.90;;
52740;SDS011;38634;52.138;9.912;2022-09-13T08:08:54;9.68;;;2.85;;
52740;SDS011;38634;52.138;9.912;2022-09-13T08:11:43;10.25;;;2.88;;
52740;SDS011;38634;52.138;9.912;2022-09-13T08:14:31;9.13;;;2.58;;
52740;SDS011;38634;52.138;9.912;2022-09-13T08:17:15;9.93;;;2.80;;
52740;SDS011;38634;52.138;9.912;2022-09-13T08:20:00;8.57;;;2.58;;
52740;SDS011;38634;52.138;9.912;2022-09-13T08:22:45;11.15;;;2.70;;
52740;SDS011;38634;52.138;9.912;2022-09-13T08:25:30;11.30;;;2.70;;
52740;SDS011;38634;52.138;9.912;2022-09-13T08:28:19;11.63;;;2.55;;
52740;SDS011;38634;52.138;9.912;2022-09-13T08:31:23;10.60;;;2.78;;
52740;SDS011;38634;52.138;9.912;2022-09-13T08:34:10;9.57;;;2.33;;
52740;SDS011;38634;52.138;9.912;2022-09-13T08:36:57;6.18;;;1.70;;
52740;SDS011;38634;52.138;9.912;2022-09-13T08:39:42;11.15;;;2.50;;
52740;SDS011;38634;52.138;9.912;2022-09-13T08:45:34;9.13;;;2.65;;
52740;SDS011;38634;52.138;9.912;2022-09-13T08:48:19;10.50;;;2.65;;
52740;SDS011;38634;52.138;9.912;2022-09-13T08:51:08;14.93;;;4.00;;
52740;SDS011;38634;52.138;9.912;2022-09-13T08:54:23;7.18;;;2.10;;
52740;SDS011;38634;52.138;9.912;2022-09-13T08:57:16;10.25;;;2.70;;
52740;SDS011;38634;52.138;9.912;2022-09-13T09:00:30;8.90;;;2.38;;
52740;SDS011;38634;52.138;9.912;2022-09-13T09:06:15;10.23;;;2.70;;
52740;SDS011;38634;52.138;9.912;2022-09-13T09:09:05;11.13;;;2.95;;
52740;SDS011;38634;52.138;9.912;2022-09-13T09:20:58;8.73;;;2.20;;
52740;SDS011;38634;52.138;9.912;2022-09-13T09:23:51;7.88;;;2.17;;
52740;SDS011;38634;52.138;9.912;2022-09-13T09:26:37;10.52;;;2.60;;
52740;SDS011;38634;52.138;9.912;2022-09-13T09:38:43;7.85;;;2.10;;
52740;SDS011;38634;52.138;9.912;2022-09-13T09:41:29;18.35;;;5.07;;
52740;SDS011;38634;52.138;9.912;2022-09-13T09:44:26;13.10;;;3.00;;
52740;SDS011;38634;52.138;9.912;2022-09-13T09:47:15;12.00;;;2.58;;
52740;SDS011;38634;52.138;9.912;2022-09-13T09:53:02;11.52;;;2.45;;
52740;SDS011;38634;52.138;9.912;2022-09-13T09:56:01;9.95;;;2.45;;
52740;SDS011;38634;52.138;9.912;2022-09-13T09:58:59;9.00;;;2.30;;
52740;SDS011;38634;52.138;9.912;2022-09-13T10:01:44;10.15;;;2.53;;
52740;SDS011;38634;52.138;9.912;2022-09-13T10:04:30;10.55;;;2.50;;
52740;SDS011;38634;52.138;9.912;2022-09-13T10:07:21;10.52;;;2.33;;
52740;SDS011;38634;52.138;9.912;2022-09-13T10:10:24;11.23;;;2.67;;
52740;SDS011;38634;52.138;9.912;2022-09-13T10:13:25;13.45;;;2.63;;
52740;SDS011;38634;52.138;9.912;2022-09-13T10:16:24;13.50;;;2.80;;
52740;SDS011;38634;52.138;9.912;2022-09-13T10:19:24;7.93;;;1.90;;
52740;SDS011;38634;52.138;9.912;2022-09-13T10:22:11;12.95;;;2.70;;
52740;SDS011;38634;52.138;9.912;2022-09-13T10:28:09;13.70;;;2.78;;
52740;SDS011;38634;52.138;9.912;2022-09-13T10:30:58;13.10;;;2.78;;
52740;SDS011;38634;52.138;9.912;2022-09-13T10:33:56;12.82;;;2.90;;
52740;SDS011;38634;52.138;9.912;2022-09-13T10:36:50;10.50;;;2.35;;
52740;SDS011;38634;52.138;9.912;2022-09-13T10:43:13;10.85;;;2.47;;
52740;SDS011;38634;52.138;9.912;2022-09-13T10:45:59;8.68;;;2.05;;
52740;SDS011;38634;52.138;9.912;2022-09-13T10:48:47;8.10;;;2.53;;
52740;SDS011;38634;52.138;9.912;2022-09-13T10:51:41;9.05;;;2.33;;
52740;SDS011;38634;52.138;9.912;2022-09-13T10:54:26;11.88;;;2.60;;
52740;SDS011;38634;52.138;9.912;2022-09-13T11:00:27;8.98;;;2.42;;
52740;SDS011;38634;52.138;9.912;2022-09-13T11:14:10;10.18;;;2.58;;
52740;SDS011;38634;52.138;9.912;2022-09-13T11:16:58;11.63;;;2.65;;
52740;SDS011;38634;52.138;9.912;2022-09-13T11:20:03;7.90;;;2.38;;
52740;SDS011;38634;52.138;9.912;2022-09-13T11:45:59;7.80;;;2.08;;
52740;SDS011;38634;52.138;9.912;2022-09-13T11:55:24;10.50;;;2.70;;
52740;SDS011;38634;52.138;9.912;2022-09-13T12:01:19;11.20;;;3.72;;
52740;SDS011;38634;52.138;9.912;2022-09-13T12:04:10;28.73;;;7.10;;
52740;SDS011;38634;52.138;9.912;2022-09-13T12:07:11;13.02;;;3.47;;
52740;SDS011;38634;52.138;9.912;2022-09-13T12:10:12;32.33;;;7.53;;
52740;SDS011;38634;52.138;9.912;2022-09-13T12:13:29;14.75;;;4.22;;
52740;SDS011;38634;52.138;9.912;2022-09-13T12:16:37;15.80;;;3.95;;
52740;SDS011;38634;52.138;9.912;2022-09-13T12:19:44;30.38;;;7.05;;
52740;SDS011;38634;52.138;9.912;2022-09-13T12:22:33;29.25;;;7.00;;
52740;SDS011;38634;52.138;9.912;2022-09-13T12:25:20;30.95;;;7.07;;
52740;SDS011;38634;52.138;9.912;2022-09-13T12:31:28;14.48;;;4.45;;
52740;SDS011;38634;52.138;9.912;2022-09-13T12:34:19;35.15;;;8.02;;
52740;SDS011;38634;52.138;9.912;2022-09-13T12:40:53;35.13;;;7.97;;
52740;SDS011;38634;52.138;9.912;2022-09-13T12:47:24;11.65;;;3.95;;
52740;SDS011;38634;52.138;9.912;2022-09-13T12:55:18;25.02;;;5.95;;
52740;SDS011;38634;52.138;9.912;2022-09-13T13:01:39;31.75;;;7.43;;
52740;SDS011;38634;52.138;9.912;2022-09-13T13:04:32;7.43;;;2.70;;
52740;SDS011;38634;52.138;9.912;2022-09-13T13:07:19;5.88;;;2.08;;
52740;SDS011;38634;52.138;9.912;2022-09-13T13:10:05;7.07;;;2.28;;
52740;SDS011;38634;52.138;9.912;2022-09-13T13:13:10;23.40;;;5.78;;
52740;SDS011;38634;52.138;9.912;2022-09-13T13:19:29;26.75;;;6.72;;
52740;SDS011;38634;52.138;9.912;2022-09-13T13:25:36;20.92;;;6.15;;
52740;SDS011;38634;52.138;9.912;2022-09-13T13:37:01;35.22;;;7.60;;
52740;SDS011;38634;52.138;9.912;2022-09-13T13:46:22;30.83;;;5.63;;
52740;SDS011;38634;52.138;9.912;2022-09-13T13:55:22;37.33;;;8.23;;
52740;SDS011;38634;52.138;9.912;2022-09-13T14:01:26;29.75;;;7.80;;
52740;SDS011;38634;52.138;9.912;2022-09-13T14:04:36;32.40;;;6.70;;
52740;SDS011;38634;52.138;9.912;2022-09-13T14:21:17;43.00;;;8.38;;
52740;SDS011;38634;52.138;9.912;2022-09-13T14:27:03;17.60;;;4.93;;
52740;SDS011;38634;52.138;9.912;2022-09-13T14:29:58;25.73;;;6.30;;
52740;SDS011;38634;52.138;9.912;2022-09-13T14:32:51;12.13;;;3.88;;
52740;SDS011;38634;52.138;9.912;2022-09-13T14:35:44;21.33;;;5.75;;
52740;SDS011;38634;52.138;9.912;2022-09-13T14:38:30;12.07;;;3.70;;
52740;SDS011;38634;52.138;9.912;2022-09-13T14:41:19;16.75;;;5.80;;
52740;SDS011;38634;52.138;9.912;2022-09-13T14:44:15;29.60;;;7.88;;
52740;SDS011;38634;52.138;9.912;2022-09-13T14:47:06;14.30;;;4.28;;
52740;SDS011;38634;52.138;9.912;2022-09-13T14:50:19;27.80;;;6.82;;
52740;SDS011;38634;52.138;9.912;2022-09-13T14:53:13;22.08;;;6.18;;
52740;SDS011;38634;52.138;9.912;2022-09-13T14:56:02;17.33;;;4.90;;
52740;SDS011;38634;52.138;9.912;2022-09-13T14:59:20;16.45;;;4.60;;
52740;SDS011;38634;52.138;9.912;2022-09-13T15:02:47;27.35;;;6.95;;
52740;SDS011;38634;52.138;9.912;2022-09-13T15:05:34;18.05;;;5.00;;
52740;SDS011;38634;52.138;9.912;2022-09-13T15:11:27;14.38;;;5.07;;
52740;SDS011;38634;52.138;9.912;2022-09-13T15:14:22;13.15;;;3.83;;
52740;SDS011;38634;52.138;9.912;2022-09-13T15:17:18;25.88;;;5.93;;
52740;SDS011;38634;52.138;9.912;2022-09-13T15:20:03;14.52;;;4.53;;
52740;SDS011;38634;52.138;9.912;2022-09-13T15:22:54;17.08;;;4.68;;
52740;SDS011;38634;52.138;9.912;2022-09-13T15:25:40;22.15;;;6.40;;
52740;SDS011;38634;52.138;9.912;2022-09-13T15:28:28;20.38;;;5.10;;
52740;SDS011;38634;52.138;9.912;2022-09-13T15:31:27;31.63;;;8.57;;
52740;SDS011;38634;52.138;9.912;2022-09-13T15:34:21;8.95;;;2.50;;
52740;SDS011;38634;52.138;9.912;2022-09-13T15:37:10;11.50;;;3.42;;
52740;SDS011;38634;52.138;9.912;2022-09-13T15:40:19;25.02;;;6.22;;
52740;SDS011;38634;52.138;9.912;2022-09-13T15:43:04;30.52;;;7.38;;
52740;SDS011;38634;52.138;9.912;2022-09-13T15:45:49;27.75;;;7.55;;
52740;SDS011;38634;52.138;9.912;2022-09-13T15:48:34;10.73;;;3.47;;
52740;SDS011;38634;52.138;9.912;2022-09-13T15:51:19;13.57;;;4.47;;
52740;SDS011;38634;52.138;9.912;2022-09-13T15:54:09;28.70;;;7.43;;
52740;SDS011;38634;52.138;9.912;2022-09-13T15:56:59;14.48;;;3.90;;
52740;SDS011;38634;52.138;9.912;2022-09-13T15:59:43;11.40;;;3.20;;
52740;SDS011;38634;52.138;9.912;2022-09-13T16:02:31;19.63;;;5.13;;
52740;SDS011;38634;52.138;9.912;2022-09-13T16:05:18;26.83;;;6.93;;
52740;SDS011;38634;52.138;9.912;2022-09-13T16:08:03;15.90;;;4.47;;
52740;SDS011;38634;52.138;9.912;2022-09-13T16:10:48;15.27;;;3.97;;
52740;SDS011;38634;52.138;9.912;2022-09-13T16:13:32;17.90;;;4.90;;
52740;SDS011;38634;52.138;9.912;2022-09-13T16:16:18;30.98;;;8.13;;
52740;SDS011;38634;52.138;9.912;2022-09-13T16:19:03;24.38;;;6.43;;
52740;SDS011;38634;52.138;9.912;2022-09-13T16:21:48;12.13;;;3.80;;
52740;SDS011;38634;52.138;9.912;2022-09-13T16:24:32;15.68;;;4.93;;
52740;SDS011;38634;52.138;9.912;2022-09-13T16:27:17;25.50;;;7.00;;
52740;SDS011;38634;52.138;9.912;2022-09-13T16:30:02;30.48;;;7.32;;
52740;SDS011;38634;52.138;9.912;2022-09-13T16:32:48;14.80;;;4.28;;
52740;SDS011;38634;52.138;9.912;2022-09-13T16:35:33;11.90;;;3.72;;
52740;SDS011;38634;52.138;9.912;2022-09-13T16:38:18;15.30;;;4.00;;
52740;SDS011;38634;52.138;9.912;2022-09-13T16:41:04;28.08;;;7.63;;
52740;SDS011;38634;52.138;9.912;2022-09-13T16:43:49;23.55;;;6.70;;
52740;SDS011;38634;52.138;9.912;2022-09-13T16:46:33;17.00;;;4.30;;
52740;SDS011;38634;52.138;9.912;2022-09-13T16:49:18;8.30;;;3.03;;
52740;SDS011;38634;52.138;9.912;2022-09-13T16:52:02;10.70;;;3.42;;
52740;SDS011;38634;52.138;9.912;2022-09-13T16:54:48;31.27;;;7.65;;
52740;SDS011;38634;52.138;9.912;2022-09-13T16:57:33;28.38;;;7.15;;
52740;SDS011;38634;52.138;9.912;2022-09-13T17:00:18;16.70;;;4.97;;
52740;SDS011;38634;52.138;9.912;2022-09-13T17:03:03;13.68;;;4.32;;
52740;SDS011;38634;52.138;9.912;2022-09-13T17:05:58;20.65;;;5.38;;
52740;SDS011;38634;52.138;9.912;2022-09-13T17:09:03;22.98;;;5.88;;
52740;SDS011;38634;52.138;9.912;2022-09-13T17:11:49;31.30;;;8.10;;
52740;SDS011;38634;52.138;9.912;2022-09-13T17:14:34;16.80;;;4.78;;
52740;SDS011;38634;52.138;9.912;2022-09-13T17:17:19;11.40;;;3.30;;
52740;SDS011;38634;52.138;9.912;2022-09-13T17:20:04;15.95;;;4.38;;
52740;SDS011;38634;52.138;9.912;2022-09-13T17:22:55;31.23;;;7.97;;
52740;SDS011;38634;52.138;9.912;2022-09-13T17:25:40;18.45;;;4.78;;
52740;SDS011;38634;52.138;9.912;2022-09-13T17:28:29;9.45;;;2.30;;
52740;SDS011;38634;52.138;9.912;2022-09-13T17:31:13;11.35;;;3.05;;
52740;SDS011;38634;52.138;9.912;2022-09-13T17:33:58;12.88;;;3.10;;
52740;SDS011;38634;52.138;9.912;2022-09-13T17:36:43;10.30;;;2.53;;
52740;SDS011;38634;52.138;9.912;2022-09-13T17:39:28;8.37;;;2.37;;
52740;SDS011;38634;52.138;9.912;2022-09-13T17:42:13;8.70;;;2.60;;
52740;SDS011;38634;52.138;9.912;2022-09-13T17:44:58;8.88;;;2.63;;
52740;SDS011;38634;52.138;9.912;2022-09-13T17:47:42;9.82;;;2.70;;
52740;SDS011;38634;52.138;9.912;2022-09-13T17:50:27;5.93;;;1.90;;
52740;SDS011;38634;52.138;9.912;2022-09-13T17:53:11;9.30;;;2.50;;
52740;SDS011;38634;52.138;9.912;2022-09-13T17:55:56;7.28;;;2.20;;
52740;SDS011;38634;52.138;9.912;2022-09-13T17:58:41;7.90;;;2.38;;
52740;SDS011;38634;52.138;9.912;2022-09-13T18:01:25;9.57;;;3.63;;
52740;SDS011;38634;52.138;9.912;2022-09-13T18:04:10;8.57;;;2.60;;
52740;SDS011;38634;52.138;9.912;2022-09-13T18:06:56;9.50;;;2.60;;
52740;SDS011;38634;52.138;9.912;2022-09-13T18:09:40;10.63;;;2.78;;
52740;SDS011;38634;52.138;9.912;2022-09-13T18:12:26;7.68;;;2.33;;
52740;SDS011;38634;52.138;9.912;2022-09-13T18:15:10;8.52;;;2.80;;
52740;SDS011;38634;52.138;9.912;2022-09-13T18:17:55;7.00;;;2.10;;
52740;SDS011;38634;52.138;9.912;2022-09-13T18:20:43;8.25;;;2.55;;
52740;SDS011;38634;52.138;9.912;2022-09-13T18:23:29;8.00;;;2.45;;
52740;SDS011;38634;52.138;9.912;2022-09-13T18:26:16;8.50;;;2.30;;
52740;SDS011;38634;52.138;9.912;2022-09-13T18:29:04;11.43;;;2.70;;
52740;SDS011;38634;52.138;9.912;2022-09-13T18:31:54;10.13;;;2.47;;
52740;SDS011;38634;52.138;9.912;2022-09-13T18:34:38;11.73;;;2.67;;
52740;SDS011;38634;52.138;9.912;2022-09-13T18:37:24;11.45;;;2.80;;
52740;SDS011;38634;52.138;9.912;2022-09-13T18:40:09;13.40;;;2.90;;
52740;SDS011;38634;52.138;9.912;2022-09-13T18:42:56;14.43;;;3.10;;
52740;SDS011;38634;52.138;9.912;2022-09-13T18:45:41;12.80;;;2.80;;
52740;SDS011;38634;52.138;9.912;2022-09-13T18:48:30;12.13;;;2.67;;
52740;SDS011;38634;52.138;9.912;2022-09-13T18:51:17;13.73;;;3.83;;
52740;SDS011;38634;52.138;9.912;2022-09-13T18:54:12;11.52;;;2.72;;
52740;SDS011;38634;52.138;9.912;2022-09-13T18:57:02;12.18;;;2.92;;
52740;SDS011;38634;52.138;9.912;2022-09-13T18:59:46;14.27;;;2.97;;
52740;SDS011;38634;52.138;9.912;2022-09-13T19:02:31;11.07;;;2.55;;
52740;SDS011;38634;52.138;9.912;2022-09-13T19:05:16;12.20;;;2.67;;
52740;SDS011;38634;52.138;9.912;2022-09-13T19:08:05;8.43;;;2.17;;
52740;SDS011;38634;52.138;9.912;2022-09-13T19:10:52;9.18;;;2.38;;
52740;SDS011;38634;52.138;9.912;2022-09-13T19:13:41;11.15;;;2.70;;
52740;SDS011;38634;52.138;9.912;2022-09-13T19:16:26;10.88;;;2.67;;
52740;SDS011;38634;52.138;9.912;2022-09-13T19:19:10;10.80;;;2.60;;
52740;SDS011;38634;52.138;9.912;2022-09-13T19:21:55;8.70;;;2.00;;
52740;SDS011;38634;52.138;9.912;2022-09-13T19:24:39;9.05;;;2.38;;
52740;SDS011;38634;52.138;9.912;2022-09-13T19:27:24;9.82;;;2.60;;
52740;SDS011;38634;52.138;9.912;2022-09-13T19:30:09;9.93;;;2.67;;
52740;SDS011;38634;52.138;9.912;2022-09-13T19:32:53;10.10;;;2.53;;
52740;SDS011;38634;52.138;9.912;2022-09-13T19:35:38;9.38;;;2.35;;
52740;SDS011;38634;52.138;9.912;2022-09-13T19:38:23;9.13;;;2.33;;
52740;SDS011;38634;52.138;9.912;2022-09-13T19:41:09;7.30;;;2.33;;
52740;SDS011;38634;52.138;9.912;2022-09-13T19:43:56;9.88;;;2.42;;
52740;SDS011;38634;52.138;9.912;2022-09-13T19:46:43;5.00;;;1.92;;
52740;SDS011;38634;52.138;9.912;2022-09-13T19:49:28;3.13;;;1.60;;
52740;SDS011;38634;52.138;9.912;2022-09-13T19:52:13;5.15;;;2.08;;
52740;SDS011;38634;52.138;9.912;2022-09-13T19:54:58;3.75;;;1.75;;
52740;SDS011;38634;52.138;9.912;2022-09-13T19:57:42;2.95;;;1.50;;
52740;SDS011;38634;52.138;9.912;2022-09-13T20:00:27;3.60;;;1.63;;
52740;SDS011;38634;52.138;9.912;2022-09-13T20:03:12;2.90;;;1.40;;
52740;SDS011;38634;52.138;9.912;2022-09-13T20:06:00;1.90;;;1.30;;
52740;SDS011;38634;52.138;9.912;2022-09-13T20:08:47;1.80;;;1.30;;
52740;SDS011;38634;52.138;9.912;2022-09-13T20:11:32;4.28;;;1.95;;
52740;SDS011;38634;52.138;9.912;2022-09-13T20:14:18;7.03;;;2.13;;
52740;SDS011;38634;52.138;9.912;2022-09-13T20:17:04;8.20;;;2.30;;
52740;SDS011;38634;52.138;9.912;2022-09-13T20:19:49;8.45;;;2.42;;
52740;SDS011;38634;52.138;9.912;2022-09-13T20:22:34;8.35;;;2.38;;
52740;SDS011;38634;52.138;9.912;2022-09-13T20:25:18;9.82;;;2.45;;
52740;SDS011;38634;52.138;9.912;2022-09-13T20:28:03;7.80;;;2.40;;
52740;SDS011;38634;52.138;9.912;2022-09-13T20:30:55;9.85;;;2.53;;
52740;SDS011;38634;52.138;9.912;2022-09-13T20:33:43;7.53;;;2.45;;
52740;SDS011;38634;52.138;9.912;2022-09-13T20:36:28;9.75;;;2.63;;
52740;SDS011;38634;52.138;9.912;2022-09-13T20:39:14;5.70;;;1.90;;
52740;SDS011;38634;52.138;9.912;2022-09-13T20:41:59;7.63;;;2.13;;
52740;SDS011;38634;52.138;9.912;2022-09-13T20:44:44;8.23;;;2.38;;
52740;SDS011;38634;52.138;9.912;2022-09-13T20:47:28;9.32;;;2.45;;
52740;SDS011;38634;52.138;9.912;2022-09-13T20:50:13;8.75;;;2.47;;
52740;SDS011;38634;52.138;9.912;2022-09-13T20:52:58;9.20;;;2.75;;
52740;SDS011;38634;52.138;9.912;2022-09-13T20:55:43;5.40;;;1.75;;
52740;SDS011;38634;52.138;9.912;2022-09-13T20:58:28;10.32;;;2.88;;
52740;SDS011;38634;52.138;9.912;2022-09-13T21:01:14;9.95;;;3.53;;
52740;SDS011;38634;52.138;9.912;2022-09-13T21:04:03;9.82;;;2.45;;
52740;SDS011;38634;52.138;9.912;2022-09-13T21:06:48;8.13;;;2.25;;
52740;SDS011;38634;52.138;9.912;2022-09-13T21:09:51;8.50;;;2.45;;
52740;SDS011;38634;52.138;9.912;2022-09-13T21:12:36;6.28;;;2.00;;
52740;SDS011;38634;52.138;9.912;2022-09-13T21:15:21;4.90;;;1.42;;
52740;SDS011;38634;52.138;9.912;2022-09-13T21:18:06;9.05;;;2.65;;
52740;SDS011;38634;52.138;9.912;2022-09-13T21:20:58;8.27;;;2.55;;
52740;SDS011;38634;52.138;9.912;2022-09-13T21:23:44;8.65;;;2.50;;
52740;SDS011;38634;52.138;9.912;2022-09-13T21:26:30;8.35;;;2.42;;
52740;SDS011;38634;52.138;9.912;2022-09-13T21:29:15;8.55;;;2.35;;
52740;SDS011;38634;52.138;9.912;2022-09-13T21:31:59;10.25;;;2.42;;
52740;SDS011;38634;52.138;9.912;2022-09-13T21:34:44;8.68;;;2.50;;
52740;SDS011;38634;52.138;9.912;2022-09-13T21:37:28;8.55;;;2.50;;
52740;SDS011;38634;52.138;9.912;2022-09-13T21:40:13;7.78;;;2.47;;
52740;SDS011;38634;52.138;9.912;2022-09-13T21:42:58;7.82;;;2.30;;
52740;SDS011;38634;52.138;9.912;2022-09-13T21:45:42;9.75;;;3.03;;
52740;SDS011;38634;52.138;9.912;2022-09-13T21:48:28;7.65;;;2.38;;
52740;SDS011;38634;52.138;9.912;2022-09-13T21:51:21;6.78;;;2.58;;
52740;SDS011;38634;52.138;9.912;2022-09-13T21:54:20;8.25;;;2.47;;
52740;SDS011;38634;52.138;9.912;2022-09-13T21:57:05;7.90;;;2.28;;
52740;SDS011;38634;52.138;9.912;2022-09-13T21:59:50;8.40;;;2.42;;
52740;SDS011;38634;52.138;9.912;2022-09-13T22:02:34;6.13;;;2.10;;
52740;SDS011;38634;52.138;9.912;2022-09-13T22:05:19;9.60;;;2.50;;
52740;SDS011;38634;52.138;9.912;2022-09-13T22:08:04;6.03;;;2.10;;
52740;SDS011;38634;52.138;9.912;2022-09-13T22:10:48;9.45;;;2.75;;
52740;SDS011;38634;52.138;9.912;2022-09-13T22:13:33;5.28;;;1.75;;
52740;SDS011;38634;52.138;9.912;2022-09-13T22:16:22;6.90;;;2.25;;
52740;SDS011;38634;52.138;9.912;2022-09-13T22:19:12;5.40;;;2.25;;
52740;SDS011;38634;52.138;9.912;2022-09-13T22:21:59;6.43;;;2.42;;
52740;SDS011;38634;52.138;9.912;2022-09-13T22:24:46;6.05;;;2.30;;
52740;SDS011;38634;52.138;9.912;2022-09-13T22:27:30;6.13;;;2.35;;
52740;SDS011;38634;52.138;9.912;2022-09-13T22:30:15;5.88;;;2.50;;
52740;SDS011;38634;52.138;9.912;2022-09-13T22:33:00;5.25;;;2.28;;
52740;SDS011;38634;52.138;9.912;2022-09-13T22:35:44;6.25;;;2.47;;
52740;SDS011;38634;52.138;9.912;2022-09-13T22:38:29;7.50;;;2.63;;
52740;SDS011;38634;52.138;9.912;2022-09-13T22:41:15;5.75;;;2.42;;
52740;SDS011;38634;52.138;9.912;2022-09-13T22:44:02;4.97;;;2.25;;
52740;SDS011;38634;52.138;9.912;2022-09-13T22:46:46;4.75;;;2.20;;
52740;SDS011;38634;52.138;9.912;2022-09-13T22:49:31;2.97;;;1.75;;
52740;SDS011;38634;52.138;9.912;2022-09-13T22:52:16;4.15;;;2.30;;
52740;SDS011;38634;52.138;9.912;2022-09-13T22:55:00;3.85;;;1.80;;
52740;SDS011;38634;52.138;9.912;2022-09-13T22:57:45;4.20;;;2.13;;
52740;SDS011;38634;52.138;9.912;2022-09-13T23:00:29;4.28;;;1.90;;
52740;SDS011;38634;52.138;9.912;2022-09-13T23:03:14;5.32;;;2.40;;
52740;SDS011;38634;52.138;9.912;2022-09-13T23:05:58;4.18;;;2.10;;
52740;SDS011;38634;52.138;9.912;2022-09-13T23:08:43;1.95;;;1.38;;
52740;SDS011;38634;52.138;9.912;2022-09-13T23:11:30;1.85;;;1.27;;
52740;SDS011;38634;52.138;9.912;2022-09-13T23:14:18;2.20;;;1.48;;
52740;SDS011;38634;52.138;9.912;2022-09-13T23:17:03;2.35;;;1.60;;
52740;SDS011;38634;52.138;9.912;2022-09-13T23:19:47;2.50;;;1.42;;
52740;SDS011;38634;52.138;9.912;2022-09-13T23:22:32;0.90;;;0.90;;
52740;SDS011;38634;52.138;9.912;2022-09-13T23:25:17;1.90;;;1.38;;
52740;SDS011;38634;52.138;9.912;2022-09-13T23:28:01;0.80;;;0.80;;
52740;SDS011;38634;52.138;9.912;2022-09-13T23:30:46;0.88;;;0.88;;
52740;SDS011;38634;52.138;9.912;2022-09-13T23:33:30;2.05;;;1.20;;
